sensor_id;sensor_type;location;lat;lon;timestamp;P1;durP1;ratioP1;P2;durP2;ratioP2
41061;SDS011;26812;42.662;23.352;2023-02-22T00:00:38;13.55;;;8.38;;
41061;SDS011;26812;42.662;23.352;2023-02-22T00:03:28;14.50;;;7.75;;
41061;SDS011;26812;42.662;23.352;2023-02-22T00:05:59;12.98;;;8.13;;
41061;SDS011;26812;42.662;23.352;2023-02-22T00:08:30;12.88;;;7.88;;
41061;SDS011;26812;42.662;23.352;2023-02-22T00:10:58;15.88;;;8.70;;
41061;SDS011;26812;42.662;23.352;2023-02-22T00:13:25;13.35;;;8.63;;
41061;SDS011;26812;42.662;23.352;2023-02-22T00:15:55;12.40;;;8.35;;
41061;SDS011;26812;42.662;23.352;2023-02-22T00:18:21;9.88;;;7.90;;
41061;SDS011;26812;42.662;23.352;2023-02-22T00:20:47;13.18;;;7.18;;
41061;SDS011;26812;42.662;23.352;2023-02-22T00:23:14;11.82;;;8.05;;
41061;SDS011;26812;42.662;23.352;2023-02-22T00:25:46;11.77;;;7.55;;
41061;SDS011;26812;42.662;23.352;2023-02-22T00:28:13;15.38;;;8.52;;
41061;SDS011;26812;42.662;23.352;2023-02-22T00:30:39;10.65;;;7.75;;
41061;SDS011;26812;42.662;23.352;2023-02-22T00:33:07;14.57;;;7.90;;
41061;SDS011;26812;42.662;23.352;2023-02-22T00:35:33;13.80;;;8.25;;
41061;SDS011;26812;42.662;23.352;2023-02-22T00:37:59;12.65;;;8.02;;
41061;SDS011;26812;42.662;23.352;2023-02-22T00:40:27;13.25;;;7.68;;
41061;SDS011;26812;42.662;23.352;2023-02-22T00:42:57;12.60;;;7.15;;
41061;SDS011;26812;42.662;23.352;2023-02-22T00:45:24;14.88;;;8.40;;
41061;SDS011;26812;42.662;23.352;2023-02-22T00:47:51;11.40;;;7.45;;
41061;SDS011;26812;42.662;23.352;2023-02-22T00:50:21;13.75;;;8.80;;
41061;SDS011;26812;42.662;23.352;2023-02-22T00:52:48;11.35;;;8.73;;
41061;SDS011;26812;42.662;23.352;2023-02-22T00:55:15;13.02;;;7.78;;
41061;SDS011;26812;42.662;23.352;2023-02-22T00:57:42;14.35;;;8.32;;
41061;SDS011;26812;42.662;23.352;2023-02-22T01:00:36;12.73;;;7.43;;
41061;SDS011;26812;42.662;23.352;2023-02-22T01:03:04;10.60;;;7.68;;
41061;SDS011;26812;42.662;23.352;2023-02-22T01:05:30;10.60;;;7.05;;
41061;SDS011;26812;42.662;23.352;2023-02-22T01:07:57;15.43;;;9.27;;
41061;SDS011;26812;42.662;23.352;2023-02-22T01:10:38;13.50;;;9.15;;
41061;SDS011;26812;42.662;23.352;2023-02-22T01:13:03;15.50;;;8.73;;
41061;SDS011;26812;42.662;23.352;2023-02-22T01:15:32;17.52;;;8.38;;
41061;SDS011;26812;42.662;23.352;2023-02-22T01:18:02;10.95;;;7.78;;
41061;SDS011;26812;42.662;23.352;2023-02-22T01:20:29;13.20;;;8.88;;
41061;SDS011;26812;42.662;23.352;2023-02-22T01:22:55;11.98;;;8.52;;
41061;SDS011;26812;42.662;23.352;2023-02-22T01:25:23;14.43;;;8.80;;
41061;SDS011;26812;42.662;23.352;2023-02-22T01:27:51;12.45;;;8.05;;
41061;SDS011;26812;42.662;23.352;2023-02-22T01:30:19;10.07;;;7.88;;
41061;SDS011;26812;42.662;23.352;2023-02-22T01:32:46;14.50;;;8.48;;
41061;SDS011;26812;42.662;23.352;2023-02-22T01:35:14;13.00;;;8.82;;
41061;SDS011;26812;42.662;23.352;2023-02-22T01:37:42;12.13;;;8.55;;
41061;SDS011;26812;42.662;23.352;2023-02-22T01:40:13;13.75;;;8.65;;
41061;SDS011;26812;42.662;23.352;2023-02-22T01:42:45;11.15;;;7.78;;
41061;SDS011;26812;42.662;23.352;2023-02-22T01:50:27;13.25;;;8.10;;
41061;SDS011;26812;42.662;23.352;2023-02-22T01:52:53;15.27;;;8.40;;
41061;SDS011;26812;42.662;23.352;2023-02-22T01:55:19;12.73;;;9.25;;
41061;SDS011;26812;42.662;23.352;2023-02-22T01:57:45;11.55;;;7.30;;
41061;SDS011;26812;42.662;23.352;2023-02-22T02:00:13;14.68;;;7.97;;
41061;SDS011;26812;42.662;23.352;2023-02-22T02:02:45;14.88;;;8.48;;
41061;SDS011;26812;42.662;23.352;2023-02-22T02:05:18;15.13;;;8.07;;
41061;SDS011;26812;42.662;23.352;2023-02-22T02:07:44;14.43;;;8.32;;
41061;SDS011;26812;42.662;23.352;2023-02-22T02:10:11;13.98;;;8.18;;
41061;SDS011;26812;42.662;23.352;2023-02-22T02:12:40;12.18;;;7.10;;
41061;SDS011;26812;42.662;23.352;2023-02-22T02:18:03;10.73;;;7.90;;
41061;SDS011;26812;42.662;23.352;2023-02-22T02:42:05;13.93;;;8.38;;
41061;SDS011;26812;42.662;23.352;2023-02-22T02:44:36;14.05;;;7.75;;
41061;SDS011;26812;42.662;23.352;2023-02-22T02:47:12;13.27;;;8.65;;
41061;SDS011;26812;42.662;23.352;2023-02-22T02:52:17;11.80;;;8.23;;
41061;SDS011;26812;42.662;23.352;2023-02-22T02:54:45;11.02;;;8.27;;
41061;SDS011;26812;42.662;23.352;2023-02-22T02:57:12;12.68;;;8.45;;
41061;SDS011;26812;42.662;23.352;2023-02-22T02:59:38;14.00;;;8.10;;
41061;SDS011;26812;42.662;23.352;2023-02-22T03:13:22;11.65;;;7.57;;
41061;SDS011;26812;42.662;23.352;2023-02-22T03:18:43;12.07;;;8.35;;
41061;SDS011;26812;42.662;23.352;2023-02-22T03:21:33;12.35;;;6.95;;
41061;SDS011;26812;42.662;23.352;2023-02-22T03:29:21;12.77;;;7.72;;
41061;SDS011;26812;42.662;23.352;2023-02-22T03:31:53;13.15;;;7.95;;
41061;SDS011;26812;42.662;23.352;2023-02-22T03:34:26;12.55;;;7.53;;
41061;SDS011;26812;42.662;23.352;2023-02-22T03:37:18;13.23;;;7.35;;
41061;SDS011;26812;42.662;23.352;2023-02-22T03:39:48;11.18;;;7.22;;
41061;SDS011;26812;42.662;23.352;2023-02-22T03:42:18;9.98;;;8.05;;
41061;SDS011;26812;42.662;23.352;2023-02-22T03:44:48;14.35;;;7.55;;
41061;SDS011;26812;42.662;23.352;2023-02-22T03:47:37;11.50;;;7.13;;
41061;SDS011;26812;42.662;23.352;2023-02-22T03:52:34;9.77;;;6.85;;
41061;SDS011;26812;42.662;23.352;2023-02-22T03:55:01;11.48;;;7.68;;
41061;SDS011;26812;42.662;23.352;2023-02-22T03:57:30;10.30;;;7.55;;
41061;SDS011;26812;42.662;23.352;2023-02-22T03:59:59;15.23;;;6.55;;
41061;SDS011;26812;42.662;23.352;2023-02-22T04:02:25;11.13;;;7.28;;
41061;SDS011;26812;42.662;23.352;2023-02-22T04:04:51;13.90;;;8.25;;
41061;SDS011;26812;42.662;23.352;2023-02-22T04:07:16;12.38;;;8.18;;
41061;SDS011;26812;42.662;23.352;2023-02-22T04:09:41;9.73;;;7.35;;
41061;SDS011;26812;42.662;23.352;2023-02-22T04:12:07;11.43;;;7.43;;
41061;SDS011;26812;42.662;23.352;2023-02-22T04:14:33;12.95;;;8.20;;
41061;SDS011;26812;42.662;23.352;2023-02-22T04:16:59;12.18;;;7.80;;
41061;SDS011;26812;42.662;23.352;2023-02-22T04:19:24;10.82;;;7.38;;
41061;SDS011;26812;42.662;23.352;2023-02-22T04:21:50;10.85;;;7.95;;
41061;SDS011;26812;42.662;23.352;2023-02-22T04:24:16;10.45;;;7.47;;
41061;SDS011;26812;42.662;23.352;2023-02-22T04:26:41;12.80;;;8.70;;
41061;SDS011;26812;42.662;23.352;2023-02-22T04:29:07;14.27;;;8.63;;
41061;SDS011;26812;42.662;23.352;2023-02-22T04:31:33;10.95;;;6.90;;
41061;SDS011;26812;42.662;23.352;2023-02-22T04:33:59;14.18;;;8.27;;
41061;SDS011;26812;42.662;23.352;2023-02-22T04:36:26;10.05;;;6.55;;
41061;SDS011;26812;42.662;23.352;2023-02-22T04:38:52;9.88;;;7.32;;
41061;SDS011;26812;42.662;23.352;2023-02-22T04:41:19;15.23;;;8.18;;
41061;SDS011;26812;42.662;23.352;2023-02-22T04:43:44;13.93;;;7.68;;
41061;SDS011;26812;42.662;23.352;2023-02-22T04:46:10;10.55;;;7.45;;
41061;SDS011;26812;42.662;23.352;2023-02-22T04:48:36;14.18;;;8.10;;
41061;SDS011;26812;42.662;23.352;2023-02-22T04:51:02;13.63;;;8.05;;
41061;SDS011;26812;42.662;23.352;2023-02-22T04:53:27;13.43;;;9.15;;
41061;SDS011;26812;42.662;23.352;2023-02-22T04:55:53;9.02;;;7.15;;
41061;SDS011;26812;42.662;23.352;2023-02-22T04:58:18;12.82;;;8.82;;
41061;SDS011;26812;42.662;23.352;2023-02-22T05:00:45;12.25;;;7.65;;
41061;SDS011;26812;42.662;23.352;2023-02-22T05:03:10;11.85;;;7.22;;
41061;SDS011;26812;42.662;23.352;2023-02-22T05:05:36;10.82;;;8.10;;
41061;SDS011;26812;42.662;23.352;2023-02-22T05:08:01;16.17;;;8.25;;
41061;SDS011;26812;42.662;23.352;2023-02-22T05:10:27;14.93;;;8.07;;
41061;SDS011;26812;42.662;23.352;2023-02-22T05:12:53;14.10;;;7.82;;
41061;SDS011;26812;42.662;23.352;2023-02-22T05:15:20;17.92;;;8.93;;
41061;SDS011;26812;42.662;23.352;2023-02-22T05:17:46;15.25;;;9.00;;
41061;SDS011;26812;42.662;23.352;2023-02-22T05:20:24;13.52;;;9.10;;
41061;SDS011;26812;42.662;23.352;2023-02-22T05:22:58;12.45;;;9.57;;
41061;SDS011;26812;42.662;23.352;2023-02-22T05:25:25;15.50;;;9.75;;
41061;SDS011;26812;42.662;23.352;2023-02-22T05:27:56;14.55;;;8.27;;
41061;SDS011;26812;42.662;23.352;2023-02-22T05:30:24;14.93;;;9.13;;
41061;SDS011;26812;42.662;23.352;2023-02-22T05:32:52;16.80;;;9.50;;
41061;SDS011;26812;42.662;23.352;2023-02-22T05:35:18;17.48;;;9.50;;
41061;SDS011;26812;42.662;23.352;2023-02-22T05:37:45;15.93;;;10.25;;
41061;SDS011;26812;42.662;23.352;2023-02-22T05:40:11;13.15;;;8.88;;
41061;SDS011;26812;42.662;23.352;2023-02-22T05:42:38;13.13;;;9.90;;
41061;SDS011;26812;42.662;23.352;2023-02-22T05:45:05;19.80;;;9.93;;
41061;SDS011;26812;42.662;23.352;2023-02-22T05:47:31;15.27;;;8.90;;
41061;SDS011;26812;42.662;23.352;2023-02-22T05:49:56;12.02;;;9.73;;
41061;SDS011;26812;42.662;23.352;2023-02-22T05:52:22;16.58;;;11.02;;
41061;SDS011;26812;42.662;23.352;2023-02-22T05:54:47;17.80;;;10.15;;
41061;SDS011;26812;42.662;23.352;2023-02-22T05:57:12;17.13;;;10.70;;
41061;SDS011;26812;42.662;23.352;2023-02-22T05:59:38;14.30;;;10.57;;
41061;SDS011;26812;42.662;23.352;2023-02-22T06:02:03;22.05;;;11.40;;
41061;SDS011;26812;42.662;23.352;2023-02-22T06:04:29;15.90;;;10.90;;
41061;SDS011;26812;42.662;23.352;2023-02-22T06:06:54;20.02;;;10.85;;
41061;SDS011;26812;42.662;23.352;2023-02-22T06:09:20;21.42;;;11.90;;
41061;SDS011;26812;42.662;23.352;2023-02-22T06:11:45;15.30;;;10.68;;
41061;SDS011;26812;42.662;23.352;2023-02-22T06:14:11;16.75;;;11.27;;
41061;SDS011;26812;42.662;23.352;2023-02-22T06:16:36;20.25;;;11.90;;
41061;SDS011;26812;42.662;23.352;2023-02-22T06:19:01;21.20;;;11.48;;
41061;SDS011;26812;42.662;23.352;2023-02-22T06:21:27;20.27;;;11.88;;
41061;SDS011;26812;42.662;23.352;2023-02-22T06:23:53;20.25;;;12.20;;
41061;SDS011;26812;42.662;23.352;2023-02-22T06:26:19;22.40;;;13.48;;
41061;SDS011;26812;42.662;23.352;2023-02-22T06:28:45;21.55;;;11.75;;
41061;SDS011;26812;42.662;23.352;2023-02-22T06:31:11;24.85;;;11.48;;
41061;SDS011;26812;42.662;23.352;2023-02-22T06:33:36;24.35;;;11.77;;
41061;SDS011;26812;42.662;23.352;2023-02-22T06:36:01;16.75;;;11.10;;
41061;SDS011;26812;42.662;23.352;2023-02-22T06:38:27;20.42;;;12.15;;
41061;SDS011;26812;42.662;23.352;2023-02-22T06:40:53;20.38;;;11.73;;
41061;SDS011;26812;42.662;23.352;2023-02-22T06:43:19;21.90;;;13.65;;
41061;SDS011;26812;42.662;23.352;2023-02-22T06:45:48;22.95;;;13.27;;
41061;SDS011;26812;42.662;23.352;2023-02-22T06:48:14;19.85;;;12.75;;
41061;SDS011;26812;42.662;23.352;2023-02-22T06:50:40;18.52;;;11.75;;
41061;SDS011;26812;42.662;23.352;2023-02-22T06:53:05;21.23;;;12.40;;
41061;SDS011;26812;42.662;23.352;2023-02-22T06:55:31;17.35;;;11.07;;
41061;SDS011;26812;42.662;23.352;2023-02-22T06:57:58;19.63;;;10.45;;
41061;SDS011;26812;42.662;23.352;2023-02-22T07:00:25;16.98;;;9.90;;
41061;SDS011;26812;42.662;23.352;2023-02-22T07:02:52;17.40;;;9.75;;
41061;SDS011;26812;42.662;23.352;2023-02-22T07:05:18;13.45;;;8.85;;
41061;SDS011;26812;42.662;23.352;2023-02-22T07:07:45;13.95;;;8.65;;
41061;SDS011;26812;42.662;23.352;2023-02-22T07:10:16;15.25;;;8.63;;
41061;SDS011;26812;42.662;23.352;2023-02-22T07:12:47;11.05;;;8.02;;
41061;SDS011;26812;42.662;23.352;2023-02-22T07:15:13;13.23;;;7.82;;
41061;SDS011;26812;42.662;23.352;2023-02-22T07:17:41;14.13;;;7.40;;
41061;SDS011;26812;42.662;23.352;2023-02-22T07:20:07;9.70;;;6.72;;
41061;SDS011;26812;42.662;23.352;2023-02-22T07:22:35;8.10;;;6.63;;
41061;SDS011;26812;42.662;23.352;2023-02-22T07:25:02;8.65;;;6.00;;
41061;SDS011;26812;42.662;23.352;2023-02-22T07:27:27;7.15;;;5.22;;
41061;SDS011;26812;42.662;23.352;2023-02-22T07:29:53;10.52;;;5.90;;
41061;SDS011;26812;42.662;23.352;2023-02-22T07:32:18;12.65;;;6.78;;
41061;SDS011;26812;42.662;23.352;2023-02-22T07:34:43;10.27;;;6.00;;
41061;SDS011;26812;42.662;23.352;2023-02-22T07:37:09;11.68;;;6.78;;
41061;SDS011;26812;42.662;23.352;2023-02-22T07:39:34;11.65;;;6.97;;
41061;SDS011;26812;42.662;23.352;2023-02-22T07:42:01;9.48;;;5.82;;
41061;SDS011;26812;42.662;23.352;2023-02-22T07:44:27;10.85;;;6.75;;
41061;SDS011;26812;42.662;23.352;2023-02-22T07:46:53;10.50;;;6.35;;
41061;SDS011;26812;42.662;23.352;2023-02-22T07:49:18;7.55;;;6.55;;
41061;SDS011;26812;42.662;23.352;2023-02-22T07:51:44;11.23;;;6.45;;
41061;SDS011;26812;42.662;23.352;2023-02-22T07:54:09;10.60;;;6.18;;
41061;SDS011;26812;42.662;23.352;2023-02-22T07:56:35;9.25;;;5.60;;
41061;SDS011;26812;42.662;23.352;2023-02-22T07:59:00;11.00;;;6.47;;
41061;SDS011;26812;42.662;23.352;2023-02-22T08:01:26;15.57;;;7.40;;
41061;SDS011;26812;42.662;23.352;2023-02-22T08:03:51;9.48;;;6.63;;
41061;SDS011;26812;42.662;23.352;2023-02-22T08:06:18;16.30;;;6.65;;
41061;SDS011;26812;42.662;23.352;2023-02-22T08:08:44;10.85;;;6.75;;
41061;SDS011;26812;42.662;23.352;2023-02-22T08:11:10;12.18;;;7.30;;
41061;SDS011;26812;42.662;23.352;2023-02-22T08:13:37;12.18;;;7.25;;
41061;SDS011;26812;42.662;23.352;2023-02-22T08:16:03;14.85;;;8.02;;
41061;SDS011;26812;42.662;23.352;2023-02-22T08:18:28;15.68;;;8.82;;
41061;SDS011;26812;42.662;23.352;2023-02-22T08:20:54;17.90;;;8.02;;
41061;SDS011;26812;42.662;23.352;2023-02-22T08:23:21;17.67;;;8.50;;
41061;SDS011;26812;42.662;23.352;2023-02-22T08:25:49;14.32;;;9.52;;
41061;SDS011;26812;42.662;23.352;2023-02-22T08:28:15;13.98;;;9.20;;
41061;SDS011;26812;42.662;23.352;2023-02-22T08:30:43;14.30;;;10.10;;
41061;SDS011;26812;42.662;23.352;2023-02-22T08:33:10;17.80;;;10.10;;
41061;SDS011;26812;42.662;23.352;2023-02-22T08:35:39;18.48;;;12.48;;
41061;SDS011;26812;42.662;23.352;2023-02-22T08:38:07;20.92;;;12.50;;
41061;SDS011;26812;42.662;23.352;2023-02-22T08:40:41;19.95;;;13.40;;
41061;SDS011;26812;42.662;23.352;2023-02-22T08:43:06;20.85;;;12.70;;
41061;SDS011;26812;42.662;23.352;2023-02-22T08:45:32;30.15;;;12.88;;
41061;SDS011;26812;42.662;23.352;2023-02-22T08:47:57;20.58;;;11.60;;
41061;SDS011;26812;42.662;23.352;2023-02-22T08:50:24;18.13;;;11.30;;
41061;SDS011;26812;42.662;23.352;2023-02-22T08:52:57;18.92;;;10.90;;
41061;SDS011;26812;42.662;23.352;2023-02-22T08:55:25;22.08;;;11.65;;
41061;SDS011;26812;42.662;23.352;2023-02-22T08:57:56;14.63;;;10.45;;
41061;SDS011;26812;42.662;23.352;2023-02-22T09:00:22;21.55;;;10.30;;
41061;SDS011;26812;42.662;23.352;2023-02-22T09:02:53;20.30;;;11.82;;
41061;SDS011;26812;42.662;23.352;2023-02-22T09:05:18;17.02;;;8.90;;
41061;SDS011;26812;42.662;23.352;2023-02-22T09:07:44;8.30;;;5.53;;
41061;SDS011;26812;42.662;23.352;2023-02-22T09:10:10;5.65;;;4.28;;
41061;SDS011;26812;42.662;23.352;2023-02-22T09:12:39;6.60;;;4.53;;
41061;SDS011;26812;42.662;23.352;2023-02-22T09:15:05;7.57;;;4.82;;
41061;SDS011;26812;42.662;23.352;2023-02-22T09:17:31;8.95;;;4.65;;
41061;SDS011;26812;42.662;23.352;2023-02-22T09:19:56;5.80;;;4.28;;
41061;SDS011;26812;42.662;23.352;2023-02-22T09:22:21;6.80;;;5.07;;
41061;SDS011;26812;42.662;23.352;2023-02-22T09:24:47;6.63;;;4.32;;
41061;SDS011;26812;42.662;23.352;2023-02-22T09:27:18;7.53;;;4.90;;
41061;SDS011;26812;42.662;23.352;2023-02-22T09:29:46;7.30;;;5.57;;
41061;SDS011;26812;42.662;23.352;2023-02-22T09:32:12;6.70;;;4.50;;
41061;SDS011;26812;42.662;23.352;2023-02-22T09:34:38;7.75;;;5.35;;
41061;SDS011;26812;42.662;23.352;2023-02-22T09:37:09;7.28;;;4.57;;
41061;SDS011;26812;42.662;23.352;2023-02-22T09:39:36;9.95;;;5.45;;
41061;SDS011;26812;42.662;23.352;2023-02-22T09:48:13;6.70;;;4.10;;
41061;SDS011;26812;42.662;23.352;2023-02-22T09:50:33;5.35;;;3.17;;
41061;SDS011;26812;42.662;23.352;2023-02-22T09:53:24;6.22;;;2.83;;
41061;SDS011;26812;42.662;23.352;2023-02-22T09:56:00;3.78;;;2.72;;
41061;SDS011;26812;42.662;23.352;2023-02-22T09:58:43;4.75;;;2.85;;
41061;SDS011;26812;42.662;23.352;2023-02-22T10:01:28;5.82;;;3.28;;
41061;SDS011;26812;42.662;23.352;2023-02-22T10:04:19;9.10;;;2.90;;
41061;SDS011;26812;42.662;23.352;2023-02-22T10:09:20;3.90;;;2.50;;
41061;SDS011;26812;42.662;23.352;2023-02-22T10:17:35;4.18;;;2.45;;
41061;SDS011;26812;42.662;23.352;2023-02-22T10:25:39;4.55;;;2.95;;
41061;SDS011;26812;42.662;23.352;2023-02-22T10:28:23;5.00;;;2.60;;
41061;SDS011;26812;42.662;23.352;2023-02-22T10:31:02;3.80;;;2.80;;
41061;SDS011;26812;42.662;23.352;2023-02-22T10:33:41;9.10;;;6.35;;
41061;SDS011;26812;42.662;23.352;2023-02-22T10:36:14;3.90;;;2.85;;
41061;SDS011;26812;42.662;23.352;2023-02-22T10:38:44;3.08;;;2.20;;
41061;SDS011;26812;42.662;23.352;2023-02-22T10:43:47;3.60;;;2.47;;
41061;SDS011;26812;42.662;23.352;2023-02-22T10:46:14;3.50;;;2.45;;
41061;SDS011;26812;42.662;23.352;2023-02-22T10:48:43;5.15;;;2.20;;
41061;SDS011;26812;42.662;23.352;2023-02-22T10:51:11;5.43;;;2.88;;
41061;SDS011;26812;42.662;23.352;2023-02-22T10:53:37;3.55;;;2.72;;
41061;SDS011;26812;42.662;23.352;2023-02-22T10:56:22;3.58;;;2.90;;
41061;SDS011;26812;42.662;23.352;2023-02-22T11:01:27;3.70;;;2.70;;
41061;SDS011;26812;42.662;23.352;2023-02-22T11:03:58;6.30;;;2.63;;
41061;SDS011;26812;42.662;23.352;2023-02-22T11:06:24;5.80;;;3.13;;
41061;SDS011;26812;42.662;23.352;2023-02-22T11:08:49;3.42;;;2.50;;
41061;SDS011;26812;42.662;23.352;2023-02-22T11:11:20;4.80;;;2.78;;
41061;SDS011;26812;42.662;23.352;2023-02-22T11:13:55;2.90;;;2.60;;
41061;SDS011;26812;42.662;23.352;2023-02-22T11:16:31;3.58;;;2.65;;
41061;SDS011;26812;42.662;23.352;2023-02-22T11:21:25;3.85;;;3.00;;
41061;SDS011;26812;42.662;23.352;2023-02-22T11:23:59;4.63;;;2.88;;
41061;SDS011;26812;42.662;23.352;2023-02-22T11:26:27;4.35;;;2.80;;
41061;SDS011;26812;42.662;23.352;2023-02-22T11:28:59;6.88;;;2.50;;
41061;SDS011;26812;42.662;23.352;2023-02-22T11:31:40;3.08;;;2.40;;
41061;SDS011;26812;42.662;23.352;2023-02-22T11:34:08;3.92;;;2.00;;
41061;SDS011;26812;42.662;23.352;2023-02-22T11:36:50;3.72;;;2.50;;
41061;SDS011;26812;42.662;23.352;2023-02-22T11:39:23;4.00;;;2.30;;
41061;SDS011;26812;42.662;23.352;2023-02-22T11:41:51;5.15;;;2.13;;
41061;SDS011;26812;42.662;23.352;2023-02-22T11:44:24;4.15;;;2.40;;
41061;SDS011;26812;42.662;23.352;2023-02-22T11:46:52;3.22;;;2.25;;
41061;SDS011;26812;42.662;23.352;2023-02-22T11:49:19;3.42;;;2.30;;
41061;SDS011;26812;42.662;23.352;2023-02-22T11:52:08;3.30;;;2.42;;
41061;SDS011;26812;42.662;23.352;2023-02-22T12:05:57;4.88;;;2.00;;
41061;SDS011;26812;42.662;23.352;2023-02-22T12:08:41;2.33;;;1.92;;
41061;SDS011;26812;42.662;23.352;2023-02-22T12:17:21;2.17;;;1.75;;
41061;SDS011;26812;42.662;23.352;2023-02-22T12:20:16;3.08;;;2.40;;
41061;SDS011;26812;42.662;23.352;2023-02-22T12:25:30;2.67;;;1.98;;
41061;SDS011;26812;42.662;23.352;2023-02-22T12:28:13;3.75;;;2.67;;
41061;SDS011;26812;42.662;23.352;2023-02-22T12:30:40;2.45;;;2.20;;
41061;SDS011;26812;42.662;23.352;2023-02-22T12:33:13;3.95;;;1.80;;
41061;SDS011;26812;42.662;23.352;2023-02-22T12:35:48;3.95;;;2.53;;
41061;SDS011;26812;42.662;23.352;2023-02-22T12:40:55;4.22;;;2.20;;
41061;SDS011;26812;42.662;23.352;2023-02-22T12:43:27;2.70;;;1.80;;
41061;SDS011;26812;42.662;23.352;2023-02-22T12:48:53;2.15;;;1.75;;
41061;SDS011;26812;42.662;23.352;2023-02-22T13:00:24;4.43;;;2.28;;
41061;SDS011;26812;42.662;23.352;2023-02-22T13:03:05;3.63;;;2.17;;
41061;SDS011;26812;42.662;23.352;2023-02-22T13:05:43;3.20;;;2.10;;
41061;SDS011;26812;42.662;23.352;2023-02-22T13:08:59;3.72;;;2.05;;
41061;SDS011;26812;42.662;23.352;2023-02-22T13:22:32;3.53;;;2.28;;
41061;SDS011;26812;42.662;23.352;2023-02-22T13:27:59;4.75;;;2.40;;
41061;SDS011;26812;42.662;23.352;2023-02-22T13:30:35;2.38;;;2.10;;
41061;SDS011;26812;42.662;23.352;2023-02-22T13:33:09;3.00;;;2.50;;
41061;SDS011;26812;42.662;23.352;2023-02-22T13:38:20;3.83;;;2.53;;
41061;SDS011;26812;42.662;23.352;2023-02-22T13:54:01;5.95;;;2.50;;
41061;SDS011;26812;42.662;23.352;2023-02-22T13:56:33;3.53;;;2.35;;
41061;SDS011;26812;42.662;23.352;2023-02-22T13:59:02;3.17;;;2.50;;
41061;SDS011;26812;42.662;23.352;2023-02-22T14:01:36;4.88;;;3.15;;
41061;SDS011;26812;42.662;23.352;2023-02-22T14:06:46;4.28;;;2.95;;
41061;SDS011;26812;42.662;23.352;2023-02-22T14:09:15;5.18;;;2.40;;
41061;SDS011;26812;42.662;23.352;2023-02-22T14:12:01;3.45;;;3.03;;
41061;SDS011;26812;42.662;23.352;2023-02-22T14:14:26;3.33;;;2.80;;
41061;SDS011;26812;42.662;23.352;2023-02-22T14:17:37;5.25;;;3.00;;
41061;SDS011;26812;42.662;23.352;2023-02-22T14:22:38;3.45;;;2.50;;
41061;SDS011;26812;42.662;23.352;2023-02-22T14:25:05;4.68;;;3.05;;
41061;SDS011;26812;42.662;23.352;2023-02-22T14:27:57;3.88;;;2.25;;
41061;SDS011;26812;42.662;23.352;2023-02-22T14:30:23;5.07;;;3.75;;
41061;SDS011;26812;42.662;23.352;2023-02-22T14:32:51;5.80;;;3.20;;
41061;SDS011;26812;42.662;23.352;2023-02-22T14:35:17;5.70;;;3.67;;
41061;SDS011;26812;42.662;23.352;2023-02-22T14:37:43;4.65;;;2.97;;
41061;SDS011;26812;42.662;23.352;2023-02-22T14:40:18;3.40;;;3.08;;
41061;SDS011;26812;42.662;23.352;2023-02-22T14:42:51;3.28;;;2.70;;
41061;SDS011;26812;42.662;23.352;2023-02-22T14:45:27;4.85;;;3.65;;
41061;SDS011;26812;42.662;23.352;2023-02-22T14:53:17;4.15;;;3.10;;
41061;SDS011;26812;42.662;23.352;2023-02-22T14:56:03;4.85;;;3.33;;
41061;SDS011;26812;42.662;23.352;2023-02-22T14:58:41;6.00;;;3.47;;
41061;SDS011;26812;42.662;23.352;2023-02-22T15:01:15;4.72;;;3.17;;
41061;SDS011;26812;42.662;23.352;2023-02-22T15:03:47;4.07;;;2.47;;
41061;SDS011;26812;42.662;23.352;2023-02-22T15:06:16;3.35;;;2.50;;
41061;SDS011;26812;42.662;23.352;2023-02-22T15:08:44;4.22;;;2.83;;
41061;SDS011;26812;42.662;23.352;2023-02-22T15:11:23;4.18;;;2.70;;
41061;SDS011;26812;42.662;23.352;2023-02-22T15:13:55;3.20;;;2.90;;
41061;SDS011;26812;42.662;23.352;2023-02-22T15:16:22;3.67;;;2.90;;
41061;SDS011;26812;42.662;23.352;2023-02-22T15:18:52;4.43;;;3.08;;
41061;SDS011;26812;42.662;23.352;2023-02-22T15:21:20;9.07;;;3.30;;
41061;SDS011;26812;42.662;23.352;2023-02-22T15:23:50;6.35;;;4.00;;
41061;SDS011;26812;42.662;23.352;2023-02-22T15:26:38;5.72;;;3.42;;
41061;SDS011;26812;42.662;23.352;2023-02-22T15:29:26;5.03;;;3.42;;
41061;SDS011;26812;42.662;23.352;2023-02-22T15:32:17;6.15;;;4.20;;
41061;SDS011;26812;42.662;23.352;2023-02-22T15:35:04;5.55;;;3.40;;
41061;SDS011;26812;42.662;23.352;2023-02-22T15:37:37;6.07;;;3.65;;
41061;SDS011;26812;42.662;23.352;2023-02-22T15:40:06;5.32;;;3.75;;
41061;SDS011;26812;42.662;23.352;2023-02-22T15:42:51;8.95;;;4.05;;
41061;SDS011;26812;42.662;23.352;2023-02-22T15:45:19;6.43;;;3.67;;
41061;SDS011;26812;42.662;23.352;2023-02-22T15:47:47;4.55;;;3.90;;
41061;SDS011;26812;42.662;23.352;2023-02-22T15:55:18;6.20;;;4.82;;
41061;SDS011;26812;42.662;23.352;2023-02-22T15:57:49;7.63;;;4.35;;
41061;SDS011;26812;42.662;23.352;2023-02-22T16:00:19;5.40;;;4.20;;
41061;SDS011;26812;42.662;23.352;2023-02-22T16:02:48;7.25;;;4.55;;
41061;SDS011;26812;42.662;23.352;2023-02-22T16:05:15;7.55;;;4.60;;
41061;SDS011;26812;42.662;23.352;2023-02-22T16:07:46;6.93;;;5.00;;
41061;SDS011;26812;42.662;23.352;2023-02-22T16:10:21;7.50;;;5.22;;
41061;SDS011;26812;42.662;23.352;2023-02-22T16:13:07;8.43;;;4.70;;
41061;SDS011;26812;42.662;23.352;2023-02-22T16:15:51;8.90;;;5.68;;
41061;SDS011;26812;42.662;23.352;2023-02-22T16:18:24;5.60;;;4.60;;
41061;SDS011;26812;42.662;23.352;2023-02-22T16:21:25;7.20;;;4.47;;
41061;SDS011;26812;42.662;23.352;2023-02-22T16:23:52;9.93;;;6.30;;
41061;SDS011;26812;42.662;23.352;2023-02-22T16:31:38;10.63;;;5.70;;
41061;SDS011;26812;42.662;23.352;2023-02-22T16:36:38;11.48;;;6.18;;
41061;SDS011;26812;42.662;23.352;2023-02-22T16:39:13;10.93;;;5.97;;
41061;SDS011;26812;42.662;23.352;2023-02-22T16:41:51;10.70;;;6.10;;
41061;SDS011;26812;42.662;23.352;2023-02-22T16:44:19;14.02;;;7.80;;
41061;SDS011;26812;42.662;23.352;2023-02-22T16:46:44;12.23;;;6.97;;
41061;SDS011;26812;42.662;23.352;2023-02-22T16:49:10;15.38;;;7.68;;
41061;SDS011;26812;42.662;23.352;2023-02-22T16:51:43;14.50;;;7.63;;
41061;SDS011;26812;42.662;23.352;2023-02-22T16:54:22;12.90;;;6.57;;
41061;SDS011;26812;42.662;23.352;2023-02-22T16:56:53;10.98;;;7.07;;
41061;SDS011;26812;42.662;23.352;2023-02-22T16:59:20;12.65;;;8.23;;
41061;SDS011;26812;42.662;23.352;2023-02-22T17:01:46;20.55;;;8.55;;
41061;SDS011;26812;42.662;23.352;2023-02-22T17:04:13;12.38;;;7.80;;
41061;SDS011;26812;42.662;23.352;2023-02-22T17:06:49;10.68;;;7.43;;
41061;SDS011;26812;42.662;23.352;2023-02-22T17:09:15;12.32;;;7.90;;
41061;SDS011;26812;42.662;23.352;2023-02-22T17:11:43;13.32;;;7.47;;
41061;SDS011;26812;42.662;23.352;2023-02-22T17:14:15;13.75;;;7.88;;
41061;SDS011;26812;42.662;23.352;2023-02-22T17:16:42;11.70;;;6.30;;
41061;SDS011;26812;42.662;23.352;2023-02-22T17:19:15;11.48;;;7.25;;
41061;SDS011;26812;42.662;23.352;2023-02-22T17:21:42;9.30;;;6.63;;
41061;SDS011;26812;42.662;23.352;2023-02-22T17:24:09;9.73;;;6.47;;
41061;SDS011;26812;42.662;23.352;2023-02-22T17:26:36;11.68;;;7.30;;
41061;SDS011;26812;42.662;23.352;2023-02-22T17:29:02;8.93;;;6.10;;
41061;SDS011;26812;42.662;23.352;2023-02-22T17:31:27;10.65;;;6.32;;